createdAt,value
2022-10-31T00:00:13.489Z,140.90
2022-10-31T00:05:17.659Z,151.60
2022-10-31T00:10:19.502Z,124.70
2022-10-31T00:15:21.631Z,111.35
2022-10-31T00:20:23.466Z,109.93
2022-10-31T00:25:25.528Z,119.60
2022-10-31T00:30:27.453Z,109.07
2022-10-31T00:35:29.308Z,110.70
2022-10-31T00:40:31.157Z,103.97
2022-10-31T00:45:33.171Z,94.63
2022-10-31T00:50:35.013Z,103.80
2022-10-31T00:55:36.982Z,97.60
2022-10-31T01:00:39.348Z,76.45
2022-10-31T01:05:41.312Z,83.85
2022-10-31T01:10:44.019Z,75.22
2022-10-31T01:15:46.294Z,95.65
2022-10-31T01:20:48.142Z,83.88
2022-10-31T01:25:50.108Z,79.88
2022-10-31T01:30:51.996Z,77.13
2022-10-31T01:35:54.434Z,68.30
2022-10-31T01:40:56.355Z,76.65
2022-10-31T01:45:58.333Z,65.70
2022-10-31T01:51:00.802Z,210.05
2022-10-31T01:56:02.711Z,229.27
2022-10-31T02:01:07.923Z,85.70
2022-10-31T02:06:26.354Z,72.40
2022-10-31T02:11:30.524Z,65.47
2022-10-31T02:16:32.678Z,57.42
2022-10-31T02:21:56.320Z,65.15
2022-10-31T02:27:10.450Z,55.80
2022-10-31T02:32:18.271Z,56.63
2022-10-31T02:37:47.315Z,56.30
2022-10-31T02:42:49.181Z,51.55
2022-10-31T02:47:59.962Z,43.97
2022-10-31T02:53:03.685Z,44.42
2022-10-31T03:03:26.303Z,75.65
2022-10-31T03:08:42.931Z,51.40
2022-10-31T03:13:50.450Z,41.40
2022-10-31T03:19:06.624Z,49.05
2022-10-31T03:24:10.478Z,40.65
2022-10-31T03:29:16.362Z,45.67
2022-10-31T03:34:20.719Z,40.17
2022-10-31T03:39:24.548Z,49.90
2022-10-31T03:49:35.799Z,46.03
2022-10-31T03:54:41.456Z,46.67
2022-10-31T03:59:48.119Z,43.40
2022-10-31T04:04:51.065Z,41.75
2022-10-31T04:09:54.215Z,56.38
2022-10-31T04:14:58.330Z,46.65
2022-10-31T04:20:01.857Z,42.70
2022-10-31T04:25:04.865Z,36.00
2022-10-31T04:30:07.518Z,39.83
2022-10-31T04:35:12.105Z,49.95
2022-10-31T04:40:14.199Z,40.70
2022-10-31T04:45:34.458Z,52.75
2022-10-31T04:50:36.681Z,46.65
2022-10-31T04:55:38.711Z,52.13
2022-10-31T05:00:56.899Z,95.72
2022-10-31T05:05:59.084Z,83.07
2022-10-31T05:11:04.452Z,37.63
2022-10-31T05:16:07.571Z,44.47
2022-10-31T05:21:28.075Z,44.47
2022-10-31T05:26:34.623Z,89.15
2022-10-31T05:31:36.531Z,323.38
2022-10-31T05:36:40.708Z,384.95
2022-10-31T05:41:48.450Z,242.93
2022-10-31T05:47:01.985Z,226.82
2022-10-31T05:52:22.540Z,243.60
2022-10-31T05:57:33.363Z,170.10
2022-10-31T06:02:35.526Z,257.15
2022-10-31T06:07:57.468Z,376.35
2022-10-31T06:18:11.251Z,157.98
2022-10-31T06:28:33.527Z,108.35
2022-10-31T06:33:47.334Z,134.27
2022-10-31T06:38:49.315Z,68.72
2022-10-31T06:43:53.785Z,100.88
2022-10-31T06:49:14.294Z,121.40
2022-10-31T06:54:26.600Z,131.27
2022-10-31T06:59:29.835Z,181.27
2022-10-31T07:04:46.711Z,208.85
2022-10-31T07:14:56.337Z,135.02
2022-10-31T07:19:58.315Z,229.82
2022-10-31T07:25:00.684Z,123.97
2022-10-31T07:30:40.463Z,231.77
2022-10-31T07:40:52.887Z,77.32
2022-10-31T07:45:55.662Z,88.32
2022-10-31T07:51:16.143Z,219.95
2022-10-31T07:56:36.255Z,78.82
2022-10-31T08:01:38.348Z,194.02
2022-10-31T08:07:06.432Z,89.05
2022-10-31T08:12:11.300Z,160.38
2022-10-31T08:17:13.539Z,102.40
2022-10-31T08:22:22.664Z,134.70
2022-10-31T08:27:25.234Z,52.38
2022-10-31T08:32:29.051Z,67.53
2022-10-31T08:37:58.134Z,52.80
2022-10-31T08:43:15.921Z,62.72
2022-10-31T08:48:18.382Z,79.07
2022-10-31T08:53:20.408Z,97.45
2022-10-31T08:58:35.135Z,38.85
2022-10-31T09:03:39.802Z,38.80
2022-10-31T09:08:42.770Z,36.40
2022-10-31T09:13:44.707Z,37.53
2022-10-31T09:18:52.431Z,36.03
2022-10-31T09:23:54.867Z,41.03
2022-10-31T09:28:58.647Z,42.58
2022-10-31T09:34:00.917Z,41.85
2022-10-31T09:39:11.693Z,44.17
2022-10-31T09:44:46.580Z,50.45
2022-10-31T09:50:15.511Z,44.22
2022-10-31T09:55:21.876Z,53.33
2022-10-31T10:00:30.408Z,58.03
2022-10-31T10:06:06.907Z,49.55
2022-10-31T10:11:44.013Z,38.47
2022-10-31T10:17:19.357Z,43.25
2022-10-31T10:22:33.579Z,41.33
2022-10-31T10:28:07.827Z,46.75
2022-10-31T10:33:21.848Z,38.78
2022-10-31T10:43:36.645Z,43.05
2022-10-31T10:48:50.225Z,40.45
2022-10-31T10:54:14.736Z,41.45
2022-10-31T10:59:20.517Z,40.63
2022-10-31T11:04:34.535Z,37.30
2022-10-31T11:09:37.712Z,35.95
2022-10-31T11:14:53.504Z,36.45
2022-10-31T11:20:27.051Z,36.35
2022-10-31T11:25:28.907Z,29.95
2022-10-31T11:30:36.331Z,32.78
2022-10-31T11:35:40.857Z,29.73
2022-10-31T11:40:53.316Z,29.13
2022-10-31T11:45:55.964Z,29.65
2022-10-31T11:50:59.252Z,26.73
2022-10-31T11:56:13.290Z,29.70
2022-10-31T12:01:26.868Z,25.63
2022-10-31T12:06:34.646Z,28.65
2022-10-31T12:11:52.559Z,28.80
2022-10-31T12:17:13.790Z,24.63
2022-10-31T12:22:35.954Z,20.10
2022-10-31T12:28:03.061Z,25.20
2022-10-31T12:33:26.495Z,29.45
2022-10-31T12:38:44.818Z,21.65
2022-10-31T12:44:07.760Z,21.17
2022-10-31T12:49:20.915Z,22.57
2022-10-31T12:54:29.278Z,21.45
2022-10-31T12:59:43.752Z,29.65
2022-10-31T13:04:59.503Z,25.67
2022-10-31T13:10:13.677Z,28.20
2022-10-31T13:15:27.395Z,27.92
2022-10-31T13:25:56.574Z,30.05
2022-10-31T13:30:58.901Z,29.58
2022-10-31T13:36:12.878Z,27.95
2022-10-31T13:41:32.079Z,27.98
2022-10-31T13:46:34.044Z,27.23
2022-10-31T13:51:36.264Z,32.03
2022-10-31T13:56:38.552Z,35.75
2022-10-31T14:01:57.588Z,40.22
2022-10-31T14:07:08.632Z,43.67
2022-10-31T14:12:35.665Z,47.22
2022-10-31T14:18:02.783Z,47.88
2022-10-31T14:23:33.854Z,54.03
2022-10-31T14:28:36.827Z,46.47
2022-10-31T14:33:43.398Z,50.23
2022-10-31T14:39:12.119Z,52.15
2022-10-31T14:44:26.435Z,67.97
2022-10-31T14:50:05.341Z,60.78
2022-10-31T14:55:13.908Z,77.03
2022-10-31T15:00:21.554Z,68.78
2022-10-31T15:05:24.560Z,73.57
2022-10-31T15:10:33.205Z,97.13
2022-10-31T15:15:36.071Z,93.07
2022-10-31T15:20:44.687Z,81.60
2022-10-31T15:25:47.175Z,100.40
2022-10-31T15:30:54.787Z,90.72
2022-10-31T15:36:02.094Z,84.18
2022-10-31T15:41:19.664Z,110.35
2022-10-31T15:46:22.536Z,116.38
2022-10-31T15:51:35.097Z,121.53
2022-10-31T15:56:37.216Z,127.50
2022-10-31T16:01:39.169Z,184.20
2022-10-31T16:06:41.084Z,167.02
2022-10-31T16:11:44.254Z,194.15
2022-10-31T16:16:56.408Z,252.68
2022-10-31T16:22:13.118Z,180.23
2022-10-31T16:27:29.461Z,231.88
2022-10-31T16:32:36.282Z,321.20
2022-10-31T16:37:40.945Z,340.77
2022-10-31T16:42:44.179Z,354.40
2022-10-31T16:47:46.943Z,320.80
2022-10-31T16:58:19.971Z,230.77
2022-10-31T17:03:22.054Z,219.80
2022-10-31T17:08:24.908Z,288.73
2022-10-31T17:13:30.159Z,185.47
2022-10-31T17:18:32.514Z,224.30
2022-10-31T17:23:34.631Z,380.17
2022-10-31T17:28:36.990Z,267.35
2022-10-31T17:33:38.966Z,249.88
2022-10-31T17:38:47.247Z,254.88
2022-10-31T17:43:49.138Z,211.82
2022-10-31T17:48:51.244Z,212.75
2022-10-31T17:53:54.114Z,212.73
2022-10-31T17:58:58.104Z,182.20
2022-10-31T18:04:00.059Z,164.13
2022-10-31T18:09:05.951Z,169.05
2022-10-31T18:14:09.597Z,167.10
2022-10-31T18:24:14.554Z,112.35
2022-10-31T18:29:16.633Z,115.38
2022-10-31T18:34:18.655Z,110.78
2022-10-31T18:39:20.574Z,113.13
2022-10-31T18:44:22.495Z,117.10
2022-10-31T18:49:25.632Z,136.77
2022-10-31T18:54:27.836Z,175.80
2022-10-31T18:59:29.718Z,191.13
2022-10-31T19:04:31.612Z,145.15
2022-10-31T19:09:34.332Z,147.40
2022-10-31T19:14:36.201Z,153.17
2022-10-31T19:19:39.348Z,179.23
2022-10-31T19:24:41.298Z,191.55
2022-10-31T19:29:43.249Z,154.52
2022-10-31T19:34:45.226Z,138.75
2022-10-31T19:39:47.233Z,88.32
2022-10-31T19:44:49.190Z,81.40
2022-10-31T19:49:51.322Z,105.50
2022-10-31T19:54:53.187Z,80.28
2022-10-31T19:59:55.031Z,107.00
2022-10-31T20:04:59.242Z,124.00
2022-10-31T20:10:01.283Z,96.95
2022-10-31T20:15:03.636Z,166.32
2022-10-31T20:20:08.897Z,76.25
2022-10-31T20:25:10.941Z,70.80
2022-10-31T20:30:13.473Z,66.78
2022-10-31T20:35:15.579Z,72.78
2022-10-31T20:40:17.526Z,96.70
2022-10-31T20:45:19.334Z,69.85
2022-10-31T20:50:21.850Z,72.28
2022-10-31T20:55:29.943Z,51.33
2022-10-31T21:00:31.822Z,127.53
2022-10-31T21:05:33.674Z,77.70
2022-10-31T21:10:35.531Z,85.70
2022-10-31T21:15:37.377Z,98.53
2022-10-31T21:20:41.242Z,76.82
2022-10-31T21:25:43.624Z,82.93
2022-10-31T21:30:48.034Z,70.30
2022-10-31T21:35:51.592Z,111.57
2022-10-31T21:46:12.224Z,89.95
2022-10-31T21:51:22.740Z,82.80
2022-10-31T21:56:25.745Z,120.55
2022-10-31T22:01:29.425Z,109.05
2022-10-31T22:06:32.114Z,217.55
2022-10-31T22:11:34.485Z,78.03
2022-10-31T22:16:36.649Z,95.50
2022-10-31T22:21:44.384Z,153.93
2022-10-31T22:26:46.888Z,110.80
2022-10-31T22:31:53.544Z,110.10
2022-10-31T22:36:59.253Z,89.90
2022-10-31T22:42:01.083Z,166.80
2022-10-31T22:47:02.940Z,103.53
2022-10-31T22:52:05.487Z,117.57
2022-10-31T22:57:07.374Z,168.25
2022-10-31T23:02:12.526Z,130.27
2022-10-31T23:07:15.274Z,75.90
2022-10-31T23:12:36.748Z,78.95
2022-10-31T23:17:39.189Z,150.52
2022-10-31T23:22:41.327Z,109.95
2022-10-31T23:27:43.235Z,111.65
2022-10-31T23:32:45.051Z,170.63
2022-10-31T23:37:46.935Z,118.05
2022-10-31T23:42:48.726Z,141.15
2022-10-31T23:47:50.538Z,164.48
2022-10-31T23:52:52.700Z,354.35
2022-10-31T23:57:54.723Z,140.52
